Aeroporto :
LOGIN :

Iscrizione | Disclaimer

   EN    FR    IT 

 










Sommario :    VFR   VFR Marginale   IFR   IFR Intensivo   IFR Molto Intensivo
Visibilità : 
Base nubi : 
>= 8 km
>= 3000ft
5 / 8 km
1000 / 3000 ft
1500m / 5 km
500 / 1000 ft
800 / 1500m
200 / 500 ft
< 800m
< 200 ft
Simboli :   Temporali  Nebbia  Neve Forte  Precipitazioni Forti  Vento > 20 kt
SIGMETs :   Varie  Temporali  Ghiacco  Turbolenza  Onda orograficha  Ceneri Vulcaniche






- Altitudine del aeroporto : 308 ft
- Codice IATA : POZ


EPPO - Poznan-Lawica

ULTIMO METAR :
  • 151000Z 17012KT CAVOK 05/00 Q1001

METARs OBSOLETI :
  • 150930Z 17010KT CAVOK 04/M00 Q1001
  • 150900Z 17010KT CAVOK 04/M00 Q1002
  • 150830Z 20011KT CAVOK 04/00 Q1002
  • 150800Z 20008KT CAVOK 03/00 Q1002
  • 150730Z 20008KT CAVOK 03/00 Q1002

TAF TAF EPPO
Valido dal 15 a 06 ore il 16 a 06 ore UTC


150530Z 1506/1606 20010KT 9999 BKN030
BECMG 1508/1510 18017G28KT
TEMPO 1510/1514 4000 RA BKN008 OVC025
BECMG 1513/1515 25015G25KT
BECMG 1516/1518 23012KT



MetMap, La meteo Aeronautica in un colpo d'occhio ! - Copyright ORBIFLY Dicembre 2007 - Disclaimer

ORBIFLY MET'MAP TEAM :

Programmazione e sviluppo : Alexandra Zaïnal
Concezione : Baudouin d'Aumeries
Aiuto per la programmazione : Marc-Olivier Méhu
Supporto tecnico e logistico : Manuel Goepfert
Aiuto per la traduzione : Arnaldo La Scala

Contatto : metmap@orbifly.com




FONTI E CREDITI :

   NOAA